メインページ
METAR-TAF:

METAR-TAF

空港 :

ビクトリア国際空港

ビクトリア, ブリティッシュコロンビア州, カナダ

緯度: 48-39N, 経度: 123-26W, 海抜: 20m

現時点の気象観測

当レポートは1時間3分前の04:00(UTC)に作成
東/南東の風 6kt
気温 10°C
湿度 100%
気圧 1007 hPa
視程: 9.7km
高度200ftの雲はほとんどない
高度1400ftの雲はほとんどない
高度5300ftの千切れ雲あり
高度7100ftの曇り
小雨, 靄

METAR: CYYJ 210400Z 12006KT 6SM -RA BR FEW002 FEW014 BKN053 OVC071 10/10 A2974 RMK SF1SC1SC4AC2 SLP074

時間: 22:03 (05:03 UTC)

予報

当レポートは5時間25分前の23:38(UTC)に作成
予報は21日の 00時(UTC)から 21日の 24時(UTC)まで有効
南東の風 8kt
視程: 10km
高度500ftの雲はほとんどない
高度1500ftの雲は散在している
高度4000ftの曇り
小雨
21日の 00時(UTC)から 21日の 09時(UTC)まで一時的に
視程: 4.8km
高度500ftの雲は散在している
高度900ftの曇り
小雨, 靄
21日の 0900時(UTC)から
変向風 3kt
視程: 9.7km
高度500ftの雲は散在している
高度900ftの曇り
小雨, 靄
21日の 09時(UTC)から 21日の 15時(UTC)まで一時的に
視程: 3.2km
高度500ftの曇り
小雨, 靄
21日の 1500時(UTC)から
西/南西の風 5kt
視程: 10km
高度2500ftの千切れ雲あり
21日の 15時(UTC)から 21日の 19時(UTC)まで一時的に
視程: 10km
高度2000ftの千切れ雲あり
弱いにわか雨
21日の 1900時(UTC)から
東/南東の風 7kt
視程: 10km
高度3000ftの雲は散在している

TAF: CYYJ 202338Z 2100/2124 13008KT P6SM -RA FEW005 SCT015 OVC040 TEMPO 2100/2109 3SM -RA BR SCT005 OVC009 FM210900 VRB03KT 6SM -RA BR SCT005 OVC009 TEMPO 2109/2115 2SM -RA BR OVC005 FM211500 24005KT P6SM BKN025 TEMPO 2115/2119 P6SM -SHRA BKN020 FM211900 12007KT P6SM SCT030 RMK NXT FCST BY 210600Z

4,000以上の空港の気象観測と天気予報(METAR報とTAF報)

利用可能な観測所は地図上に黄色い丸と赤い丸で示す。

丸の上にカーソルを重ねると観測所名を参照できる。

次にクリックすると気象観測と天気予報を参照できる。

マップの切り替え:黒色「×」印の緑ボタンをクリックして拡大、「-」印の緑ボタンをクリックして縮小、緑色の三角印をクリックして隣りの地図に切り替え


METAR-TAF: